sensor_id;sensor_type;location;lat;lon;timestamp;P1;durP1;ratioP1;P2;durP2;ratioP2
39264;SDS011;42646;51.910;7.724;2023-04-27T00:02:19;8.18;;;4.38;;
39264;SDS011;42646;51.910;7.724;2023-04-27T00:04:48;8.00;;;4.00;;
39264;SDS011;42646;51.910;7.724;2023-04-27T00:07:16;6.97;;;4.15;;
39264;SDS011;42646;51.910;7.724;2023-04-27T00:09:44;7.40;;;4.55;;
39264;SDS011;42646;51.910;7.724;2023-04-27T00:12:12;6.82;;;4.53;;
39264;SDS011;42646;51.910;7.724;2023-04-27T00:14:41;7.78;;;4.32;;
39264;SDS011;42646;51.910;7.724;2023-04-27T00:17:08;7.97;;;4.40;;
39264;SDS011;42646;51.910;7.724;2023-04-27T00:19:36;8.65;;;4.28;;
39264;SDS011;42646;51.910;7.724;2023-04-27T00:22:05;8.02;;;4.70;;
39264;SDS011;42646;51.910;7.724;2023-04-27T00:24:32;8.50;;;4.53;;
39264;SDS011;42646;51.910;7.724;2023-04-27T00:27:01;9.45;;;4.78;;
39264;SDS011;42646;51.910;7.724;2023-04-27T00:29:29;9.35;;;4.55;;
39264;SDS011;42646;51.910;7.724;2023-04-27T00:31:57;9.05;;;5.03;;
39264;SDS011;42646;51.910;7.724;2023-04-27T00:34:27;7.40;;;4.50;;
39264;SDS011;42646;51.910;7.724;2023-04-27T00:36:54;8.00;;;4.93;;
39264;SDS011;42646;51.910;7.724;2023-04-27T00:39:23;7.20;;;4.53;;
39264;SDS011;42646;51.910;7.724;2023-04-27T00:41:52;8.45;;;4.70;;
39264;SDS011;42646;51.910;7.724;2023-04-27T00:44:23;6.55;;;4.35;;
39264;SDS011;42646;51.910;7.724;2023-04-27T00:46:51;7.87;;;4.53;;
39264;SDS011;42646;51.910;7.724;2023-04-27T00:49:20;9.70;;;4.60;;
39264;SDS011;42646;51.910;7.724;2023-04-27T00:51:50;7.05;;;4.57;;
39264;SDS011;42646;51.910;7.724;2023-04-27T00:54:20;6.55;;;4.38;;
39264;SDS011;42646;51.910;7.724;2023-04-27T00:56:50;7.72;;;4.45;;
39264;SDS011;42646;51.910;7.724;2023-04-27T00:59:18;7.95;;;4.68;;
39264;SDS011;42646;51.910;7.724;2023-04-27T01:01:48;8.30;;;4.47;;
39264;SDS011;42646;51.910;7.724;2023-04-27T01:04:17;7.50;;;4.53;;
39264;SDS011;42646;51.910;7.724;2023-04-27T01:06:47;9.05;;;4.85;;
39264;SDS011;42646;51.910;7.724;2023-04-27T01:09:15;9.13;;;4.80;;
39264;SDS011;42646;51.910;7.724;2023-04-27T01:11:48;8.43;;;5.25;;
39264;SDS011;42646;51.910;7.724;2023-04-27T01:14:16;9.05;;;4.85;;
39264;SDS011;42646;51.910;7.724;2023-04-27T01:16:44;8.50;;;5.30;;
39264;SDS011;42646;51.910;7.724;2023-04-27T01:19:12;9.48;;;5.05;;
39264;SDS011;42646;51.910;7.724;2023-04-27T01:21:41;8.25;;;5.07;;
39264;SDS011;42646;51.910;7.724;2023-04-27T01:24:10;9.43;;;4.95;;
39264;SDS011;42646;51.910;7.724;2023-04-27T01:26:38;8.98;;;5.15;;
39264;SDS011;42646;51.910;7.724;2023-04-27T01:29:07;8.35;;;5.22;;
39264;SDS011;42646;51.910;7.724;2023-04-27T01:31:37;10.23;;;5.37;;
39264;SDS011;42646;51.910;7.724;2023-04-27T01:34:06;9.50;;;5.75;;
39264;SDS011;42646;51.910;7.724;2023-04-27T01:36:34;10.38;;;5.80;;
39264;SDS011;42646;51.910;7.724;2023-04-27T01:39:03;7.25;;;5.15;;
39264;SDS011;42646;51.910;7.724;2023-04-27T01:41:37;10.30;;;6.10;;
39264;SDS011;42646;51.910;7.724;2023-04-27T01:44:06;12.75;;;6.20;;
39264;SDS011;42646;51.910;7.724;2023-04-27T01:46:34;8.65;;;5.72;;
39264;SDS011;42646;51.910;7.724;2023-04-27T01:49:05;9.40;;;5.57;;
39264;SDS011;42646;51.910;7.724;2023-04-27T01:51:32;7.50;;;5.07;;
39264;SDS011;42646;51.910;7.724;2023-04-27T01:54:01;9.18;;;4.97;;
39264;SDS011;42646;51.910;7.724;2023-04-27T01:56:28;9.18;;;4.38;;
39264;SDS011;42646;51.910;7.724;2023-04-27T01:58:57;6.45;;;4.47;;
39264;SDS011;42646;51.910;7.724;2023-04-27T02:01:25;9.02;;;4.55;;
39264;SDS011;42646;51.910;7.724;2023-04-27T02:03:54;8.10;;;4.78;;
39264;SDS011;42646;51.910;7.724;2023-04-27T02:06:22;7.70;;;4.45;;
39264;SDS011;42646;51.910;7.724;2023-04-27T02:11:21;8.52;;;4.97;;
39264;SDS011;42646;51.910;7.724;2023-04-27T02:13:49;7.95;;;5.13;;
39264;SDS011;42646;51.910;7.724;2023-04-27T02:16:18;7.85;;;4.80;;
39264;SDS011;42646;51.910;7.724;2023-04-27T02:18:46;8.15;;;4.80;;
39264;SDS011;42646;51.910;7.724;2023-04-27T02:21:15;9.25;;;4.82;;
39264;SDS011;42646;51.910;7.724;2023-04-27T02:23:42;9.50;;;4.82;;
39264;SDS011;42646;51.910;7.724;2023-04-27T02:26:14;9.57;;;5.75;;
39264;SDS011;42646;51.910;7.724;2023-04-27T02:28:42;8.95;;;4.85;;
39264;SDS011;42646;51.910;7.724;2023-04-27T02:31:11;9.13;;;5.22;;
39264;SDS011;42646;51.910;7.724;2023-04-27T02:33:40;9.52;;;5.05;;
39264;SDS011;42646;51.910;7.724;2023-04-27T02:36:09;8.20;;;5.20;;
39264;SDS011;42646;51.910;7.724;2023-04-27T02:38:36;9.35;;;4.95;;
39264;SDS011;42646;51.910;7.724;2023-04-27T02:41:04;9.35;;;5.22;;
39264;SDS011;42646;51.910;7.724;2023-04-27T02:43:32;12.38;;;5.72;;
39264;SDS011;42646;51.910;7.724;2023-04-27T02:46:05;10.65;;;6.53;;
39264;SDS011;42646;51.910;7.724;2023-04-27T02:48:32;10.05;;;5.65;;
39264;SDS011;42646;51.910;7.724;2023-04-27T02:51:05;8.70;;;5.38;;
39264;SDS011;42646;51.910;7.724;2023-04-27T02:53:33;7.40;;;4.85;;
39264;SDS011;42646;51.910;7.724;2023-04-27T02:56:01;8.52;;;5.03;;
39264;SDS011;42646;51.910;7.724;2023-04-27T02:58:29;8.60;;;5.38;;
39264;SDS011;42646;51.910;7.724;2023-04-27T03:00:57;10.02;;;5.60;;
39264;SDS011;42646;51.910;7.724;2023-04-27T03:03:25;11.02;;;5.65;;
39264;SDS011;42646;51.910;7.724;2023-04-27T03:05:53;9.68;;;5.70;;
39264;SDS011;42646;51.910;7.724;2023-04-27T03:08:23;10.48;;;5.72;;
39264;SDS011;42646;51.910;7.724;2023-04-27T03:10:52;8.65;;;5.65;;
39264;SDS011;42646;51.910;7.724;2023-04-27T03:13:22;9.38;;;5.65;;
39264;SDS011;42646;51.910;7.724;2023-04-27T03:15:49;10.88;;;6.40;;
39264;SDS011;42646;51.910;7.724;2023-04-27T03:18:18;11.48;;;5.75;;
39264;SDS011;42646;51.910;7.724;2023-04-27T03:20:46;9.35;;;5.30;;
39264;SDS011;42646;51.910;7.724;2023-04-27T03:23:17;10.32;;;5.72;;
39264;SDS011;42646;51.910;7.724;2023-04-27T03:25:46;9.80;;;5.63;;
39264;SDS011;42646;51.910;7.724;2023-04-27T03:28:14;10.55;;;5.10;;
39264;SDS011;42646;51.910;7.724;2023-04-27T03:30:42;9.15;;;5.35;;
39264;SDS011;42646;51.910;7.724;2023-04-27T03:33:09;8.65;;;5.53;;
39264;SDS011;42646;51.910;7.724;2023-04-27T03:35:39;11.05;;;5.82;;
39264;SDS011;42646;51.910;7.724;2023-04-27T03:38:07;9.20;;;5.40;;
39264;SDS011;42646;51.910;7.724;2023-04-27T03:40:36;9.10;;;5.53;;
39264;SDS011;42646;51.910;7.724;2023-04-27T03:43:05;10.25;;;5.65;;
39264;SDS011;42646;51.910;7.724;2023-04-27T03:45:33;7.68;;;5.10;;
39264;SDS011;42646;51.910;7.724;2023-04-27T03:48:01;9.95;;;5.30;;
39264;SDS011;42646;51.910;7.724;2023-04-27T03:50:29;10.85;;;6.47;;
39264;SDS011;42646;51.910;7.724;2023-04-27T03:52:58;10.30;;;6.15;;
39264;SDS011;42646;51.910;7.724;2023-04-27T03:55:28;9.93;;;6.00;;
39264;SDS011;42646;51.910;7.724;2023-04-27T03:57:58;8.85;;;5.57;;
39264;SDS011;42646;51.910;7.724;2023-04-27T04:00:27;10.25;;;5.65;;
39264;SDS011;42646;51.910;7.724;2023-04-27T04:02:55;11.63;;;6.20;;
39264;SDS011;42646;51.910;7.724;2023-04-27T04:05:27;9.80;;;6.03;;
39264;SDS011;42646;51.910;7.724;2023-04-27T04:07:57;10.93;;;6.10;;
39264;SDS011;42646;51.910;7.724;2023-04-27T04:10:26;10.30;;;5.45;;
39264;SDS011;42646;51.910;7.724;2023-04-27T04:12:54;9.57;;;5.95;;
39264;SDS011;42646;51.910;7.724;2023-04-27T04:15:21;9.52;;;6.00;;
39264;SDS011;42646;51.910;7.724;2023-04-27T04:17:52;10.98;;;6.22;;
39264;SDS011;42646;51.910;7.724;2023-04-27T04:20:20;11.13;;;6.03;;
39264;SDS011;42646;51.910;7.724;2023-04-27T04:22:48;10.75;;;5.97;;
39264;SDS011;42646;51.910;7.724;2023-04-27T04:25:17;8.93;;;5.60;;
39264;SDS011;42646;51.910;7.724;2023-04-27T04:27:46;9.65;;;5.60;;
39264;SDS011;42646;51.910;7.724;2023-04-27T04:30:14;8.23;;;5.68;;
39264;SDS011;42646;51.910;7.724;2023-04-27T04:32:43;10.68;;;6.13;;
39264;SDS011;42646;51.910;7.724;2023-04-27T04:35:13;11.82;;;5.90;;
39264;SDS011;42646;51.910;7.724;2023-04-27T04:37:43;9.57;;;6.13;;
39264;SDS011;42646;51.910;7.724;2023-04-27T04:40:11;13.02;;;6.32;;
39264;SDS011;42646;51.910;7.724;2023-04-27T04:42:40;11.00;;;6.38;;
39264;SDS011;42646;51.910;7.724;2023-04-27T04:45:09;10.70;;;6.00;;
39264;SDS011;42646;51.910;7.724;2023-04-27T04:47:37;9.88;;;5.88;;
39264;SDS011;42646;51.910;7.724;2023-04-27T04:50:05;9.93;;;5.90;;
39264;SDS011;42646;51.910;7.724;2023-04-27T04:52:35;11.13;;;6.00;;
39264;SDS011;42646;51.910;7.724;2023-04-27T04:55:04;10.10;;;6.03;;
39264;SDS011;42646;51.910;7.724;2023-04-27T04:57:32;11.55;;;6.63;;
39264;SDS011;42646;51.910;7.724;2023-04-27T05:00:26;10.77;;;6.28;;
39264;SDS011;42646;51.910;7.724;2023-04-27T05:02:56;11.52;;;6.22;;
39264;SDS011;42646;51.910;7.724;2023-04-27T05:05:24;11.30;;;7.00;;
39264;SDS011;42646;51.910;7.724;2023-04-27T05:07:53;10.02;;;6.25;;
39264;SDS011;42646;51.910;7.724;2023-04-27T05:10:21;11.50;;;6.65;;
39264;SDS011;42646;51.910;7.724;2023-04-27T05:12:48;10.68;;;6.18;;
39264;SDS011;42646;51.910;7.724;2023-04-27T05:15:16;11.48;;;6.68;;
39264;SDS011;42646;51.910;7.724;2023-04-27T05:17:44;12.10;;;6.78;;
39264;SDS011;42646;51.910;7.724;2023-04-27T05:20:12;16.02;;;7.88;;
39264;SDS011;42646;51.910;7.724;2023-04-27T05:22:39;11.85;;;6.95;;
39264;SDS011;42646;51.910;7.724;2023-04-27T05:25:09;10.60;;;6.70;;
39264;SDS011;42646;51.910;7.724;2023-04-27T05:27:37;12.65;;;6.60;;
39264;SDS011;42646;51.910;7.724;2023-04-27T05:30:06;10.68;;;6.80;;
39264;SDS011;42646;51.910;7.724;2023-04-27T05:32:35;14.38;;;7.43;;
39264;SDS011;42646;51.910;7.724;2023-04-27T05:35:03;13.00;;;7.50;;
39264;SDS011;42646;51.910;7.724;2023-04-27T05:38:02;12.48;;;7.43;;
39264;SDS011;42646;51.910;7.724;2023-04-27T05:43:00;13.15;;;7.53;;
39264;SDS011;42646;51.910;7.724;2023-04-27T05:48:01;13.32;;;7.72;;
39264;SDS011;42646;51.910;7.724;2023-04-27T05:50:28;13.60;;;7.70;;
39264;SDS011;42646;51.910;7.724;2023-04-27T05:52:57;15.70;;;8.50;;
39264;SDS011;42646;51.910;7.724;2023-04-27T05:55:51;14.23;;;8.48;;
39264;SDS011;42646;51.910;7.724;2023-04-27T05:58:23;16.25;;;8.65;;
39264;SDS011;42646;51.910;7.724;2023-04-27T06:00:51;15.23;;;9.25;;
39264;SDS011;42646;51.910;7.724;2023-04-27T06:03:21;17.55;;;9.43;;
39264;SDS011;42646;51.910;7.724;2023-04-27T06:05:52;18.33;;;9.13;;
39264;SDS011;42646;51.910;7.724;2023-04-27T06:08:24;17.80;;;9.32;;
39264;SDS011;42646;51.910;7.724;2023-04-27T06:10:53;15.50;;;8.57;;
39264;SDS011;42646;51.910;7.724;2023-04-27T06:13:24;13.70;;;7.63;;
39264;SDS011;42646;51.910;7.724;2023-04-27T06:16:17;10.48;;;6.85;;
39264;SDS011;42646;51.910;7.724;2023-04-27T06:18:45;11.25;;;6.88;;
39264;SDS011;42646;51.910;7.724;2023-04-27T06:21:15;10.77;;;6.95;;
39264;SDS011;42646;51.910;7.724;2023-04-27T06:23:42;11.25;;;6.30;;
39264;SDS011;42646;51.910;7.724;2023-04-27T06:26:12;9.75;;;6.15;;
39264;SDS011;42646;51.910;7.724;2023-04-27T06:28:40;8.07;;;5.40;;
39264;SDS011;42646;51.910;7.724;2023-04-27T06:31:08;9.60;;;5.50;;
39264;SDS011;42646;51.910;7.724;2023-04-27T06:33:36;9.77;;;5.40;;
39264;SDS011;42646;51.910;7.724;2023-04-27T06:36:04;11.68;;;5.95;;
39264;SDS011;42646;51.910;7.724;2023-04-27T06:38:34;11.00;;;6.43;;
39264;SDS011;42646;51.910;7.724;2023-04-27T06:41:02;14.20;;;5.22;;
39264;SDS011;42646;51.910;7.724;2023-04-27T06:43:31;21.40;;;6.07;;
39264;SDS011;42646;51.910;7.724;2023-04-27T06:46:01;22.90;;;6.05;;
39264;SDS011;42646;51.910;7.724;2023-04-27T06:48:28;12.98;;;4.75;;
39264;SDS011;42646;51.910;7.724;2023-04-27T06:50:58;8.40;;;4.28;;
39264;SDS011;42646;51.910;7.724;2023-04-27T06:53:29;7.55;;;3.88;;
39264;SDS011;42646;51.910;7.724;2023-04-27T06:55:57;7.25;;;3.85;;
39264;SDS011;42646;51.910;7.724;2023-04-27T06:58:25;7.72;;;4.35;;
39264;SDS011;42646;51.910;7.724;2023-04-27T07:00:54;7.13;;;3.50;;
39264;SDS011;42646;51.910;7.724;2023-04-27T07:03:28;5.55;;;3.50;;
39264;SDS011;42646;51.910;7.724;2023-04-27T07:05:57;8.27;;;3.58;;
39264;SDS011;42646;51.910;7.724;2023-04-27T07:08:27;6.05;;;3.20;;
39264;SDS011;42646;51.910;7.724;2023-04-27T07:10:54;6.40;;;3.40;;
39264;SDS011;42646;51.910;7.724;2023-04-27T07:13:23;5.53;;;3.35;;
39264;SDS011;42646;51.910;7.724;2023-04-27T07:15:54;8.57;;;3.50;;
39264;SDS011;42646;51.910;7.724;2023-04-27T07:18:24;7.35;;;3.70;;
39264;SDS011;42646;51.910;7.724;2023-04-27T07:20:53;5.90;;;3.30;;
39264;SDS011;42646;51.910;7.724;2023-04-27T07:23:20;5.90;;;3.08;;
39264;SDS011;42646;51.910;7.724;2023-04-27T07:25:48;6.32;;;3.10;;
39264;SDS011;42646;51.910;7.724;2023-04-27T07:28:17;5.72;;;3.05;;
39264;SDS011;42646;51.910;7.724;2023-04-27T07:30:44;5.43;;;2.55;;
39264;SDS011;42646;51.910;7.724;2023-04-27T07:33:16;4.80;;;2.80;;
39264;SDS011;42646;51.910;7.724;2023-04-27T07:35:45;5.13;;;2.70;;
39264;SDS011;42646;51.910;7.724;2023-04-27T07:38:15;5.18;;;2.28;;
39264;SDS011;42646;51.910;7.724;2023-04-27T07:40:44;4.63;;;2.05;;
39264;SDS011;42646;51.910;7.724;2023-04-27T07:43:12;4.45;;;2.15;;
39264;SDS011;42646;51.910;7.724;2023-04-27T07:45:40;5.07;;;2.00;;
39264;SDS011;42646;51.910;7.724;2023-04-27T07:48:10;4.20;;;1.80;;
39264;SDS011;42646;51.910;7.724;2023-04-27T07:50:39;4.35;;;2.15;;
39264;SDS011;42646;51.910;7.724;2023-04-27T07:53:08;4.38;;;2.10;;
39264;SDS011;42646;51.910;7.724;2023-04-27T07:55:36;4.85;;;2.30;;
39264;SDS011;42646;51.910;7.724;2023-04-27T07:58:05;5.38;;;2.28;;
39264;SDS011;42646;51.910;7.724;2023-04-27T08:00:34;6.95;;;2.22;;
39264;SDS011;42646;51.910;7.724;2023-04-27T08:03:03;15.23;;;3.05;;
39264;SDS011;42646;51.910;7.724;2023-04-27T08:05:35;6.82;;;2.70;;
39264;SDS011;42646;51.910;7.724;2023-04-27T08:08:05;4.63;;;2.00;;
39264;SDS011;42646;51.910;7.724;2023-04-27T08:10:36;4.15;;;1.90;;
39264;SDS011;42646;51.910;7.724;2023-04-27T08:13:05;4.30;;;2.00;;
39264;SDS011;42646;51.910;7.724;2023-04-27T08:15:35;5.80;;;1.85;;
39264;SDS011;42646;51.910;7.724;2023-04-27T08:18:02;4.75;;;1.95;;
39264;SDS011;42646;51.910;7.724;2023-04-27T08:20:31;4.10;;;1.67;;
39264;SDS011;42646;51.910;7.724;2023-04-27T08:22:59;5.68;;;2.08;;
39264;SDS011;42646;51.910;7.724;2023-04-27T08:25:28;5.13;;;2.03;;
39264;SDS011;42646;51.910;7.724;2023-04-27T08:27:57;3.38;;;1.80;;
39264;SDS011;42646;51.910;7.724;2023-04-27T08:30:27;4.32;;;2.00;;
39264;SDS011;42646;51.910;7.724;2023-04-27T08:32:55;5.57;;;1.75;;
39264;SDS011;42646;51.910;7.724;2023-04-27T08:35:22;3.20;;;2.00;;
39264;SDS011;42646;51.910;7.724;2023-04-27T08:37:50;4.10;;;2.28;;
39264;SDS011;42646;51.910;7.724;2023-04-27T08:40:20;5.03;;;2.10;;
39264;SDS011;42646;51.910;7.724;2023-04-27T08:42:56;5.57;;;2.10;;
39264;SDS011;42646;51.910;7.724;2023-04-27T08:45:26;3.70;;;1.95;;
39264;SDS011;42646;51.910;7.724;2023-04-27T08:47:54;16.45;;;3.42;;
39264;SDS011;42646;51.910;7.724;2023-04-27T08:50:23;7.97;;;2.55;;
39264;SDS011;42646;51.910;7.724;2023-04-27T08:52:51;12.85;;;2.42;;
39264;SDS011;42646;51.910;7.724;2023-04-27T08:55:19;6.63;;;2.10;;
39264;SDS011;42646;51.910;7.724;2023-04-27T08:57:56;3.80;;;1.90;;
39264;SDS011;42646;51.910;7.724;2023-04-27T09:00:36;3.85;;;1.95;;
39264;SDS011;42646;51.910;7.724;2023-04-27T09:03:07;3.78;;;1.80;;
39264;SDS011;42646;51.910;7.724;2023-04-27T09:05:44;5.28;;;2.17;;
39264;SDS011;42646;51.910;7.724;2023-04-27T09:08:40;5.97;;;2.03;;
39264;SDS011;42646;51.910;7.724;2023-04-27T09:11:09;4.97;;;2.10;;
39264;SDS011;42646;51.910;7.724;2023-04-27T09:13:41;4.55;;;2.00;;
39264;SDS011;42646;51.910;7.724;2023-04-27T09:16:11;4.00;;;1.80;;
39264;SDS011;42646;51.910;7.724;2023-04-27T09:18:40;4.18;;;2.20;;
39264;SDS011;42646;51.910;7.724;2023-04-27T09:21:10;6.15;;;1.98;;
39264;SDS011;42646;51.910;7.724;2023-04-27T09:23:49;3.80;;;1.88;;
39264;SDS011;42646;51.910;7.724;2023-04-27T09:26:18;4.78;;;1.88;;
39264;SDS011;42646;51.910;7.724;2023-04-27T09:28:49;4.35;;;1.95;;
39264;SDS011;42646;51.910;7.724;2023-04-27T09:31:20;4.78;;;2.38;;
39264;SDS011;42646;51.910;7.724;2023-04-27T09:33:53;4.03;;;2.20;;
39264;SDS011;42646;51.910;7.724;2023-04-27T09:36:22;5.55;;;2.50;;
39264;SDS011;42646;51.910;7.724;2023-04-27T09:38:51;4.03;;;2.17;;
39264;SDS011;42646;51.910;7.724;2023-04-27T09:41:19;3.78;;;2.17;;
39264;SDS011;42646;51.910;7.724;2023-04-27T09:43:51;5.03;;;2.38;;
39264;SDS011;42646;51.910;7.724;2023-04-27T09:46:24;4.38;;;2.53;;
39264;SDS011;42646;51.910;7.724;2023-04-27T09:48:54;3.75;;;2.22;;
39264;SDS011;42646;51.910;7.724;2023-04-27T09:51:23;5.72;;;2.50;;
39264;SDS011;42646;51.910;7.724;2023-04-27T09:53:51;3.33;;;2.08;;
39264;SDS011;42646;51.910;7.724;2023-04-27T09:56:26;3.38;;;2.00;;
39264;SDS011;42646;51.910;7.724;2023-04-27T09:59:11;3.88;;;1.80;;
39264;SDS011;42646;51.910;7.724;2023-04-27T10:01:53;5.65;;;2.20;;
39264;SDS011;42646;51.910;7.724;2023-04-27T10:04:33;4.25;;;2.17;;
39264;SDS011;42646;51.910;7.724;2023-04-27T10:07:12;4.95;;;2.10;;
39264;SDS011;42646;51.910;7.724;2023-04-27T10:09:42;4.10;;;2.20;;
39264;SDS011;42646;51.910;7.724;2023-04-27T10:12:13;5.00;;;2.40;;
39264;SDS011;42646;51.910;7.724;2023-04-27T10:14:50;4.10;;;2.17;;
39264;SDS011;42646;51.910;7.724;2023-04-27T10:17:22;4.55;;;2.20;;
39264;SDS011;42646;51.910;7.724;2023-04-27T10:19:52;6.05;;;2.60;;
39264;SDS011;42646;51.910;7.724;2023-04-27T10:22:23;4.22;;;2.40;;
39264;SDS011;42646;51.910;7.724;2023-04-27T10:25:11;6.47;;;2.60;;
39264;SDS011;42646;51.910;7.724;2023-04-27T10:27:43;4.20;;;2.17;;
39264;SDS011;42646;51.910;7.724;2023-04-27T10:30:19;4.05;;;2.40;;
39264;SDS011;42646;51.910;7.724;2023-04-27T10:32:51;6.03;;;2.42;;
39264;SDS011;42646;51.910;7.724;2023-04-27T10:35:20;5.35;;;2.83;;
39264;SDS011;42646;51.910;7.724;2023-04-27T10:37:49;4.20;;;2.58;;
39264;SDS011;42646;51.910;7.724;2023-04-27T10:40:19;5.15;;;2.58;;
39264;SDS011;42646;51.910;7.724;2023-04-27T10:42:46;6.63;;;3.03;;
39264;SDS011;42646;51.910;7.724;2023-04-27T10:45:26;4.85;;;2.50;;
39264;SDS011;42646;51.910;7.724;2023-04-27T10:47:59;5.45;;;2.60;;
39264;SDS011;42646;51.910;7.724;2023-04-27T10:50:27;4.43;;;2.35;;
39264;SDS011;42646;51.910;7.724;2023-04-27T10:52:58;5.32;;;2.80;;
39264;SDS011;42646;51.910;7.724;2023-04-27T10:55:28;4.55;;;2.47;;
39264;SDS011;42646;51.910;7.724;2023-04-27T10:57:57;4.65;;;2.20;;
39264;SDS011;42646;51.910;7.724;2023-04-27T11:00:31;4.18;;;2.40;;
39264;SDS011;42646;51.910;7.724;2023-04-27T11:03:08;5.80;;;2.58;;
39264;SDS011;42646;51.910;7.724;2023-04-27T11:05:39;6.90;;;2.67;;
39264;SDS011;42646;51.910;7.724;2023-04-27T11:08:08;9.10;;;3.25;;
39264;SDS011;42646;51.910;7.724;2023-04-27T11:10:41;7.72;;;2.70;;
39264;SDS011;42646;51.910;7.724;2023-04-27T11:13:14;5.95;;;2.60;;
39264;SDS011;42646;51.910;7.724;2023-04-27T11:15:45;5.30;;;2.75;;
39264;SDS011;42646;51.910;7.724;2023-04-27T11:18:14;5.40;;;2.83;;
39264;SDS011;42646;51.910;7.724;2023-04-27T11:20:43;6.32;;;2.75;;
39264;SDS011;42646;51.910;7.724;2023-04-27T11:23:21;4.47;;;2.67;;
39264;SDS011;42646;51.910;7.724;2023-04-27T11:25:52;5.38;;;2.78;;
39264;SDS011;42646;51.910;7.724;2023-04-27T11:28:23;4.35;;;2.83;;
39264;SDS011;42646;51.910;7.724;2023-04-27T11:30:56;4.03;;;2.58;;
39264;SDS011;42646;51.910;7.724;2023-04-27T11:33:24;4.70;;;2.80;;
39264;SDS011;42646;51.910;7.724;2023-04-27T11:35:52;5.32;;;2.97;;
39264;SDS011;42646;51.910;7.724;2023-04-27T11:38:21;4.72;;;2.88;;
39264;SDS011;42646;51.910;7.724;2023-04-27T11:40:57;5.25;;;3.20;;
39264;SDS011;42646;51.910;7.724;2023-04-27T11:43:26;5.78;;;2.92;;
39264;SDS011;42646;51.910;7.724;2023-04-27T11:45:57;5.85;;;3.00;;
39264;SDS011;42646;51.910;7.724;2023-04-27T11:48:28;5.18;;;2.80;;
39264;SDS011;42646;51.910;7.724;2023-04-27T11:50:57;4.88;;;3.10;;
39264;SDS011;42646;51.910;7.724;2023-04-27T11:53:29;4.72;;;2.85;;
39264;SDS011;42646;51.910;7.724;2023-04-27T11:55:59;4.60;;;2.90;;
39264;SDS011;42646;51.910;7.724;2023-04-27T11:58:32;4.90;;;2.97;;
39264;SDS011;42646;51.910;7.724;2023-04-27T12:01:02;6.03;;;3.50;;
39264;SDS011;42646;51.910;7.724;2023-04-27T12:03:31;5.10;;;2.97;;
39264;SDS011;42646;51.910;7.724;2023-04-27T12:06:01;4.50;;;2.80;;
39264;SDS011;42646;51.910;7.724;2023-04-27T12:08:49;6.55;;;3.25;;
39264;SDS011;42646;51.910;7.724;2023-04-27T12:11:16;3.75;;;2.85;;
39264;SDS011;42646;51.910;7.724;2023-04-27T12:13:45;7.03;;;3.63;;
39264;SDS011;42646;51.910;7.724;2023-04-27T12:16:14;8.50;;;3.55;;
39264;SDS011;42646;51.910;7.724;2023-04-27T12:18:42;4.72;;;2.90;;
39264;SDS011;42646;51.910;7.724;2023-04-27T12:21:10;5.32;;;2.95;;
39264;SDS011;42646;51.910;7.724;2023-04-27T12:23:38;5.00;;;2.88;;
39264;SDS011;42646;51.910;7.724;2023-04-27T12:26:06;5.53;;;2.70;;
39264;SDS011;42646;51.910;7.724;2023-04-27T12:28:34;5.45;;;2.90;;
39264;SDS011;42646;51.910;7.724;2023-04-27T12:31:03;4.22;;;2.78;;
39264;SDS011;42646;51.910;7.724;2023-04-27T12:33:35;6.70;;;2.95;;
39264;SDS011;42646;51.910;7.724;2023-04-27T12:36:03;6.70;;;2.97;;
39264;SDS011;42646;51.910;7.724;2023-04-27T12:38:31;5.22;;;2.80;;
39264;SDS011;42646;51.910;7.724;2023-04-27T12:40:59;5.10;;;3.25;;
39264;SDS011;42646;51.910;7.724;2023-04-27T12:43:28;5.75;;;3.25;;
39264;SDS011;42646;51.910;7.724;2023-04-27T12:45:56;5.72;;;3.17;;
39264;SDS011;42646;51.910;7.724;2023-04-27T12:48:24;4.35;;;2.80;;
39264;SDS011;42646;51.910;7.724;2023-04-27T12:50:53;5.38;;;3.20;;
39264;SDS011;42646;51.910;7.724;2023-04-27T12:53:21;5.72;;;3.00;;
39264;SDS011;42646;51.910;7.724;2023-04-27T12:55:50;6.85;;;2.92;;
39264;SDS011;42646;51.910;7.724;2023-04-27T12:58:18;5.68;;;3.00;;
39264;SDS011;42646;51.910;7.724;2023-04-27T13:00:47;6.40;;;3.30;;
39264;SDS011;42646;51.910;7.724;2023-04-27T13:03:14;6.82;;;3.50;;
39264;SDS011;42646;51.910;7.724;2023-04-27T13:05:42;6.07;;;3.15;;
39264;SDS011;42646;51.910;7.724;2023-04-27T13:08:12;7.35;;;3.30;;
39264;SDS011;42646;51.910;7.724;2023-04-27T13:10:40;5.50;;;3.50;;
39264;SDS011;42646;51.910;7.724;2023-04-27T13:13:07;5.05;;;3.38;;
39264;SDS011;42646;51.910;7.724;2023-04-27T13:15:36;5.82;;;3.20;;
39264;SDS011;42646;51.910;7.724;2023-04-27T13:18:04;6.32;;;3.38;;
39264;SDS011;42646;51.910;7.724;2023-04-27T13:20:36;5.50;;;2.80;;
39264;SDS011;42646;51.910;7.724;2023-04-27T13:23:04;4.82;;;2.70;;
39264;SDS011;42646;51.910;7.724;2023-04-27T13:25:33;6.32;;;3.20;;
39264;SDS011;42646;51.910;7.724;2023-04-27T13:28:01;5.43;;;3.10;;
39264;SDS011;42646;51.910;7.724;2023-04-27T13:30:30;6.63;;;3.38;;
39264;SDS011;42646;51.910;7.724;2023-04-27T13:33:01;4.53;;;3.00;;
39264;SDS011;42646;51.910;7.724;2023-04-27T13:35:47;5.00;;;3.13;;
39264;SDS011;42646;51.910;7.724;2023-04-27T13:38:16;5.20;;;3.10;;
39264;SDS011;42646;51.910;7.724;2023-04-27T13:40:47;6.13;;;2.90;;
39264;SDS011;42646;51.910;7.724;2023-04-27T13:43:15;4.25;;;3.00;;
39264;SDS011;42646;51.910;7.724;2023-04-27T13:45:42;4.93;;;3.30;;
39264;SDS011;42646;51.910;7.724;2023-04-27T13:48:11;8.02;;;3.50;;
39264;SDS011;42646;51.910;7.724;2023-04-27T13:50:39;5.43;;;3.67;;
39264;SDS011;42646;51.910;7.724;2023-04-27T13:53:06;7.43;;;3.60;;
39264;SDS011;42646;51.910;7.724;2023-04-27T13:55:34;6.55;;;3.45;;
39264;SDS011;42646;51.910;7.724;2023-04-27T13:58:03;4.63;;;3.30;;
39264;SDS011;42646;51.910;7.724;2023-04-27T14:00:31;6.03;;;3.95;;
39264;SDS011;42646;51.910;7.724;2023-04-27T14:03:00;5.18;;;3.30;;
39264;SDS011;42646;51.910;7.724;2023-04-27T14:05:29;6.10;;;3.30;;
39264;SDS011;42646;51.910;7.724;2023-04-27T14:07:59;4.68;;;3.00;;
39264;SDS011;42646;51.910;7.724;2023-04-27T14:10:27;6.55;;;3.50;;
39264;SDS011;42646;51.910;7.724;2023-04-27T14:12:55;5.75;;;3.33;;
39264;SDS011;42646;51.910;7.724;2023-04-27T14:15:24;4.60;;;3.30;;
39264;SDS011;42646;51.910;7.724;2023-04-27T14:17:53;4.65;;;3.25;;
39264;SDS011;42646;51.910;7.724;2023-04-27T14:20:21;5.60;;;3.50;;
39264;SDS011;42646;51.910;7.724;2023-04-27T14:22:49;4.43;;;3.70;;
39264;SDS011;42646;51.910;7.724;2023-04-27T14:25:23;5.45;;;3.10;;
39264;SDS011;42646;51.910;7.724;2023-04-27T14:27:52;5.00;;;3.22;;
39264;SDS011;42646;51.910;7.724;2023-04-27T14:30:20;5.72;;;3.40;;
39264;SDS011;42646;51.910;7.724;2023-04-27T14:32:49;6.05;;;3.10;;
39264;SDS011;42646;51.910;7.724;2023-04-27T14:35:18;5.35;;;3.58;;
39264;SDS011;42646;51.910;7.724;2023-04-27T14:37:46;6.15;;;3.80;;
39264;SDS011;42646;51.910;7.724;2023-04-27T14:40:13;5.50;;;3.70;;
39264;SDS011;42646;51.910;7.724;2023-04-27T14:42:41;5.25;;;3.42;;
39264;SDS011;42646;51.910;7.724;2023-04-27T14:45:09;7.07;;;4.00;;
39264;SDS011;42646;51.910;7.724;2023-04-27T14:47:37;7.45;;;4.40;;
39264;SDS011;42646;51.910;7.724;2023-04-27T14:50:08;6.60;;;3.85;;
39264;SDS011;42646;51.910;7.724;2023-04-27T14:52:36;9.98;;;3.88;;
39264;SDS011;42646;51.910;7.724;2023-04-27T14:55:05;7.07;;;4.22;;
39264;SDS011;42646;51.910;7.724;2023-04-27T14:57:34;6.93;;;3.47;;
39264;SDS011;42646;51.910;7.724;2023-04-27T15:00:03;5.78;;;3.60;;
39264;SDS011;42646;51.910;7.724;2023-04-27T15:02:37;5.38;;;3.65;;
39264;SDS011;42646;51.910;7.724;2023-04-27T15:05:04;7.25;;;4.10;;
39264;SDS011;42646;51.910;7.724;2023-04-27T15:07:34;7.60;;;4.63;;
39264;SDS011;42646;51.910;7.724;2023-04-27T15:10:02;5.93;;;3.80;;